Time;durP1;ratioP1;P1;durP2;ratioP2;P2;SDS_P1;SDS_P2;PMS_P1;PMS_P2;Temp;Humidity;BMP_temperature;BMP_pressure;BME280_temperature;BME280_humidity;BME280_pressure;Samples;Min_cycle;Max_cycle;Signal;HPM_P1;HPM_P2
2023/12/13 00:02:12;;;;;;;2.90;1.02;;;8.80;99.90;;;;;;5091255;28;20636;-48
2023/12/13 00:04:37;;;;;;;2.92;1.00;;;8.70;99.90;;;;;;5073288;28;20179;-50
2023/12/13 00:07:03;;;;;;;1.95;0.88;;;8.70;99.90;;;;;;5091244;28;20177;-49
2023/12/13 00:09:29;;;;;;;5.20;0.85;;;8.70;99.90;;;;;;5091337;28;20165;-49
2023/12/13 00:11:54;;;;;;;4.13;1.30;;;8.60;99.90;;;;;;5091779;28;20212;-49
2023/12/13 00:14:21;;;;;;;3.53;1.10;;;8.70;99.90;;;;;;5091475;28;20179;-49
2023/12/13 00:16:46;;;;;;;4.68;1.55;;;8.70;99.90;;;;;;5091816;28;20199;-51
2023/12/13 00:19:12;;;;;;;4.00;1.73;;;8.50;99.90;;;;;;5091138;28;20244;-49
2023/12/13 00:21:37;;;;;;;2.00;1.23;;;8.60;99.90;;;;;;5091139;28;20629;-49
2023/12/13 00:24:03;;;;;;;4.15;1.10;;;8.60;99.90;;;;;;5093780;28;20175;-49
2023/12/13 00:26:29;;;;;;;3.28;1.10;;;8.70;99.90;;;;;;5095357;28;20223;-48
2023/12/13 00:28:55;;;;;;;4.05;1.35;;;8.60;99.90;;;;;;5095844;28;20180;-48
2023/12/13 00:31:21;;;;;;;7.65;1.70;;;8.70;99.90;;;;;;5095558;28;20525;-48
2023/12/13 00:33:46;;;;;;;2.85;1.48;;;8.60;99.90;;;;;;5094957;28;20216;-48
2023/12/13 00:36:12;;;;;;;1.35;1.20;;;8.60;99.90;;;;;;5095058;28;20627;-50
2023/12/13 00:38:37;;;;;;;5.68;1.40;;;8.70;99.90;;;;;;5095196;28;20173;-48
2023/12/13 00:41:03;;;;;;;7.28;1.45;;;8.80;99.90;;;;;;5094950;28;20528;-48
2023/12/13 00:43:29;;;;;;;10.32;1.63;;;8.70;99.90;;;;;;5095108;28;20524;-51
2023/12/13 00:45:54;;;;;;;6.32;1.38;;;8.80;99.90;;;;;;5099673;28;20535;-48
2023/12/13 00:48:20;;;;;;;3.45;1.15;;;8.80;99.90;;;;;;5114772;28;20531;-48
2023/12/13 00:50:45;;;;;;;6.18;1.95;;;8.80;99.90;;;;;;5115062;28;20650;-48
2023/12/13 00:53:12;;;;;;;6.25;1.58;;;8.70;99.90;;;;;;5114809;28;20216;-49
2023/12/13 00:55:38;;;;;;;5.75;1.20;;;8.80;99.90;;;;;;5115268;28;20173;-48
2023/12/13 00:58:03;;;;;;;3.70;1.60;;;8.90;99.90;;;;;;5114997;28;20524;-50
2023/12/13 01:00:29;;;;;;;4.82;1.40;;;8.80;99.90;;;;;;5115213;28;20571;-52
2023/12/13 01:02:55;;;;;;;6.53;1.27;;;8.80;99.90;;;;;;5115558;28;20577;-49
2023/12/13 01:05:21;;;;;;;3.45;1.33;;;8.90;99.90;;;;;;5115191;28;20164;-56
2023/12/13 01:07:46;;;;;;;3.85;1.45;;;9.00;99.90;;;;;;5114240;28;20259;-50
2023/12/13 01:10:12;;;;;;;5.18;1.77;;;9.00;99.90;;;;;;5114723;28;20176;-50
2023/12/13 01:12:41;;;;;;;5.78;2.00;;;8.80;99.90;;;;;;5114883;28;20200;-47
2023/12/13 01:15:08;;;;;;;7.30;2.50;;;8.90;99.90;;;;;;5114097;28;20176;-50
2023/12/13 01:17:34;;;;;;;11.48;3.03;;;8.90;99.90;;;;;;5094461;28;20177;-49
2023/12/13 01:20:00;;;;;;;10.00;3.17;;;8.90;99.90;;;;;;5094407;28;20536;-58
2023/12/13 01:22:26;;;;;;;5.40;3.22;;;8.80;99.90;;;;;;5094359;28;20178;-56
2023/12/13 01:24:51;;;;;;;7.68;3.55;;;8.80;99.90;;;;;;5106572;28;20176;-58
2023/12/13 01:27:17;;;;;;;11.60;3.63;;;8.90;99.90;;;;;;5114331;28;20349;-58
2023/12/13 01:29:42;;;;;;;7.85;4.60;;;8.90;99.90;;;;;;5114536;28;20171;-54
2023/12/13 01:32:08;;;;;;;8.65;3.50;;;9.00;99.90;;;;;;5114254;28;20667;-50
2023/12/13 01:34:34;;;;;;;8.95;3.47;;;8.90;99.90;;;;;;5113904;28;20187;-51
2023/12/13 01:37:01;;;;;;;7.80;2.55;;;8.90;99.90;;;;;;5114150;28;20229;-48
2023/12/13 01:39:27;;;;;;;10.88;2.20;;;9.10;99.90;;;;;;5114319;28;20175;-49
2023/12/13 01:41:52;;;;;;;8.77;2.53;;;8.90;99.90;;;;;;5114492;28;20161;-49
2023/12/13 01:44:18;;;;;;;6.47;1.90;;;9.00;99.90;;;;;;5114069;28;20210;-48
2023/12/13 01:46:45;;;;;;;5.82;1.65;;;9.00;99.90;;;;;;5100110;28;20166;-49
2023/12/13 01:49:12;;;;;;;6.10;1.70;;;8.90;99.90;;;;;;5093516;28;20213;-50
2023/12/13 01:51:38;;;;;;;5.20;1.48;;;9.00;99.90;;;;;;5093299;28;20201;-49
2023/12/13 01:54:08;;;;;;;8.60;1.75;;;9.00;99.90;;;;;;5093459;28;20193;-50
2023/12/13 01:56:34;;;;;;;4.13;1.42;;;8.90;99.90;;;;;;5093407;28;20261;-49
2023/12/13 01:59:00;;;;;;;7.40;1.40;;;9.00;99.90;;;;;;5093616;28;20169;-48
2023/12/13 02:01:25;;;;;;;6.50;1.40;;;8.90;99.90;;;;;;5093218;28;20621;-50
2023/12/13 02:03:51;;;;;;;3.25;1.50;;;9.00;99.90;;;;;;5093752;28;20165;-49
2023/12/13 02:06:16;;;;;;;4.75;1.92;;;9.00;99.90;;;;;;5093282;28;20166;-48
2023/12/13 02:08:42;;;;;;;4.88;1.67;;;8.90;99.90;;;;;;5093399;28;20215;-49
2023/12/13 02:11:08;;;;;;;5.40;1.40;;;8.90;99.90;;;;;;5093392;28;20180;-51
2023/12/13 02:13:34;;;;;;;5.85;1.50;;;8.80;99.90;;;;;;5093215;28;20220;-50
2023/12/13 02:15:59;;;;;;;6.18;1.60;;;8.90;99.90;;;;;;5093083;28;20165;-50
2023/12/13 02:18:27;;;;;;;5.03;1.92;;;9.00;99.90;;;;;;5092987;28;20180;-48
2023/12/13 02:20:53;;;;;;;5.55;1.63;;;8.90;99.90;;;;;;5093306;28;20177;-48
2023/12/13 02:23:18;;;;;;;4.65;2.45;;;8.90;99.90;;;;;;5093205;28;20173;-59
2023/12/13 02:25:52;;;;;;;6.68;2.83;;;8.70;99.90;;;;;;5092820;28;20609;-57
2023/12/13 02:28:18;;;;;;;11.02;4.78;;;8.90;99.90;;;;;;5093115;28;20252;-59
2023/12/13 02:30:46;;;;;;;8.95;3.15;;;8.90;99.90;;;;;;5092681;28;20685;-56
2023/12/13 02:33:11;;;;;;;6.30;2.78;;;8.80;99.90;;;;;;5092638;28;20205;-59
2023/12/13 02:35:37;;;;;;;8.45;2.92;;;8.80;99.90;;;;;;5092735;28;20681;-59
2023/12/13 02:38:02;;;;;;;8.32;3.47;;;9.00;99.90;;;;;;5092562;28;20177;-59
2023/12/13 02:40:28;;;;;;;8.93;3.42;;;9.00;99.90;;;;;;5092607;28;20210;-59
2023/12/13 02:42:54;;;;;;;8.60;3.42;;;9.00;99.90;;;;;;5093004;28;20165;-58
2023/12/13 02:45:20;;;;;;;10.73;3.58;;;9.10;99.90;;;;;;5092293;28;20184;-58
2023/12/13 02:47:46;;;;;;;8.68;3.03;;;9.10;99.90;;;;;;5092157;28;20164;-59
2023/12/13 02:50:13;;;;;;;9.52;3.58;;;9.30;99.90;;;;;;5092632;28;20161;-58
2023/12/13 02:52:39;;;;;;;8.23;2.95;;;9.30;99.90;;;;;;5092238;28;20588;-57
2023/12/13 02:55:09;;;;;;;10.18;2.63;;;9.20;99.90;;;;;;5092344;28;20206;-57
2023/12/13 02:57:34;;;;;;;7.40;2.80;;;9.30;99.90;;;;;;5082821;28;20537;-58
2023/12/13 03:00:00;;;;;;;11.40;4.18;;;9.10;99.90;;;;;;5112267;28;20183;-58
2023/12/13 03:02:26;;;;;;;12.60;3.83;;;9.20;99.90;;;;;;5112610;28;20248;-56
2023/12/13 03:04:51;;;;;;;12.27;3.38;;;9.20;99.90;;;;;;5113163;28;20255;-57
2023/12/13 03:07:17;;;;;;;14.13;3.22;;;9.10;99.90;;;;;;5092341;28;20256;-57
2023/12/13 03:09:43;;;;;;;11.82;4.03;;;9.20;99.90;;;;;;5091919;28;20173;-58
2023/12/13 03:12:08;;;;;;;11.52;3.35;;;9.10;99.90;;;;;;5091970;28;20236;-56
2023/12/13 03:14:34;;;;;;;12.60;3.67;;;9.20;99.90;;;;;;5092039;28;20167;-57
2023/12/13 03:16:59;;;;;;;9.25;3.55;;;9.00;99.90;;;;;;5091963;28;20207;-55
2023/12/13 03:19:25;;;;;;;13.90;4.25;;;9.00;99.90;;;;;;5091961;28;20200;-55
2023/12/13 03:21:50;;;;;;;14.27;4.20;;;9.10;99.90;;;;;;5092232;28;20166;-57
2023/12/13 03:24:16;;;;;;;18.50;4.30;;;9.20;99.90;;;;;;5092154;28;20166;-58
2023/12/13 03:26:41;;;;;;;10.52;3.88;;;9.20;99.90;;;;;;5091930;28;20169;-58
2023/12/13 03:29:07;;;;;;;17.70;3.78;;;9.20;99.90;;;;;;5091730;28;20510;-58
2023/12/13 03:31:33;;;;;;;12.88;3.25;;;9.20;99.90;;;;;;5091722;28;20168;-49
2023/12/13 03:34:00;;;;;;;7.20;2.80;;;9.20;99.90;;;;;;5091724;28;20173;-48
2023/12/13 03:36:26;;;;;;;11.85;3.28;;;9.20;99.90;;;;;;5092047;28;20177;-48
2023/12/13 03:38:52;;;;;;;15.50;2.88;;;9.10;99.90;;;;;;5074026;28;20169;-48
2023/12/13 03:41:18;;;;;;;10.40;3.45;;;9.20;99.90;;;;;;5091600;28;20176;-48
2023/12/13 03:43:44;;;;;;;9.73;2.90;;;9.20;99.90;;;;;;5091537;28;20664;-48
2023/12/13 03:46:09;;;;;;;7.18;3.55;;;9.10;99.90;;;;;;5091536;28;20195;-48
2023/12/13 03:48:35;;;;;;;15.18;3.50;;;9.30;99.90;;;;;;5091514;28;20197;-48
2023/12/13 03:51:01;;;;;;;11.15;3.28;;;9.10;99.90;;;;;;5091498;28;20180;-48
2023/12/13 03:53:27;;;;;;;11.10;3.30;;;9.00;99.90;;;;;;5091212;28;20261;-50
2023/12/13 03:55:53;;;;;;;12.02;3.95;;;9.10;99.90;;;;;;5091909;28;20161;-49
2023/12/13 03:58:18;;;;;;;10.95;3.47;;;9.00;99.90;;;;;;5094791;28;20199;-47
2023/12/13 04:00:44;;;;;;;12.52;3.22;;;9.00;99.90;;;;;;5095719;28;21129;-48
2023/12/13 04:03:09;;;;;;;11.98;3.17;;;9.20;99.90;;;;;;5095617;28;20248;-47
2023/12/13 04:05:35;;;;;;;9.32;3.97;;;9.00;99.90;;;;;;5095558;28;20645;-48
2023/12/13 04:08:00;;;;;;;8.95;2.75;;;9.10;99.90;;;;;;5095617;28;20634;-48
2023/12/13 04:10:26;;;;;;;8.50;3.30;;;9.20;99.90;;;;;;5095662;28;20197;-48
2023/12/13 04:12:52;;;;;;;9.27;2.70;;;9.10;99.90;;;;;;5095718;28;20533;-52
2023/12/13 04:15:18;;;;;;;8.10;3.08;;;9.10;99.90;;;;;;5095366;28;20169;-52
2023/12/13 04:17:43;;;;;;;11.60;2.70;;;9.00;99.90;;;;;;5095338;28;20529;-47
2023/12/13 04:20:10;;;;;;;8.73;2.63;;;9.20;99.90;;;;;;5095201;28;20191;-51
2023/12/13 04:22:35;;;;;;;7.18;2.40;;;9.00;99.90;;;;;;5095411;28;20172;-51
2023/12/13 04:25:01;;;;;;;8.23;2.97;;;9.00;99.90;;;;;;5095314;28;20164;-53
2023/12/13 04:27:26;;;;;;;9.25;2.72;;;9.10;99.90;;;;;;5104886;28;20212;-47
2023/12/13 04:29:52;;;;;;;10.68;4.28;;;9.20;99.90;;;;;;5115309;28;20164;-49
2023/12/13 04:32:17;;;;;;;11.50;3.78;;;9.20;99.90;;;;;;5114728;28;20671;-50
2023/12/13 04:34:43;;;;;;;12.13;3.15;;;9.20;99.90;;;;;;5114913;28;20226;-51
2023/12/13 04:37:09;;;;;;;17.35;3.90;;;9.00;99.90;;;;;;5114794;28;20168;-47
2023/12/13 04:39:35;;;;;;;9.50;2.90;;;9.20;99.90;;;;;;5114840;28;20176;-47
2023/12/13 04:42:00;;;;;;;9.95;3.10;;;9.10;99.90;;;;;;5114957;28;20188;-47
2023/12/13 04:44:27;;;;;;;7.82;2.72;;;9.20;99.90;;;;;;5114912;28;20164;-49
2023/12/13 04:46:54;;;;;;;9.52;3.03;;;9.10;99.90;;;;;;5115213;28;20648;-47
2023/12/13 04:49:20;;;;;;;14.27;3.15;;;9.00;99.90;;;;;;5115216;28;20176;-50
2023/12/13 04:51:45;;;;;;;12.15;3.90;;;9.10;99.90;;;;;;5114204;28;20212;-48
2023/12/13 04:54:11;;;;;;;10.02;3.15;;;9.00;99.90;;;;;;5114930;28;20255;-48
2023/12/13 04:56:37;;;;;;;13.88;2.97;;;9.10;99.90;;;;;;5109511;28;20172;-47
2023/12/13 04:59:02;;;;;;;11.70;2.95;;;9.10;99.90;;;;;;5103435;28;20506;-49
2023/12/13 05:01:28;;;;;;;10.52;3.33;;;9.10;99.90;;;;;;5114438;28;20160;-49
2023/12/13 05:03:54;;;;;;;11.52;3.33;;;9.10;99.90;;;;;;5115481;28;20169;-48
2023/12/13 05:06:19;;;;;;;9.60;2.72;;;9.00;99.90;;;;;;5115167;28;20640;-48
2023/12/13 05:08:46;;;;;;;9.52;3.38;;;9.10;99.90;;;;;;5114007;28;20161;-50
2023/12/13 05:11:12;;;;;;;14.05;3.65;;;9.00;99.90;;;;;;5114584;28;20172;-51
2023/12/13 05:13:37;;;;;;;10.15;3.22;;;8.90;99.90;;;;;;5114583;28;20200;-48
2023/12/13 05:16:03;;;;;;;9.57;2.80;;;9.00;99.90;;;;;;5114591;28;20532;-57
2023/12/13 05:18:29;;;;;;;10.40;3.25;;;9.00;99.90;;;;;;5114559;28;20176;-58
2023/12/13 05:20:55;;;;;;;11.90;2.95;;;9.00;99.90;;;;;;5114495;28;20175;-57
2023/12/13 05:23:20;;;;;;;10.40;2.92;;;9.00;99.90;;;;;;5114877;28;20172;-58
2023/12/13 05:25:46;;;;;;;8.82;3.17;;;9.00;99.90;;;;;;5114313;28;20218;-58
2023/12/13 05:28:12;;;;;;;13.85;3.00;;;9.00;99.90;;;;;;5095513;28;20173;-57
2023/12/13 05:30:37;;;;;;;12.50;3.92;;;9.00;99.90;;;;;;5093753;28;20165;-56
2023/12/13 05:33:03;;;;;;;14.13;3.08;;;9.00;99.90;;;;;;5093761;28;20208;-56
2023/12/13 05:35:29;;;;;;;12.57;3.22;;;8.90;99.90;;;;;;5093880;28;20193;-56
2023/12/13 05:37:54;;;;;;;14.93;3.40;;;8.90;99.90;;;;;;5093675;28;20621;-48
2023/12/13 05:40:20;;;;;;;12.57;3.10;;;9.00;99.90;;;;;;5094124;28;20244;-59
2023/12/13 05:42:45;;;;;;;11.50;3.08;;;9.00;99.90;;;;;;5093528;28;20200;-59
2023/12/13 05:45:11;;;;;;;13.50;2.72;;;9.00;99.90;;;;;;5093622;28;20197;-57
2023/12/13 05:47:36;;;;;;;11.57;3.08;;;9.00;99.90;;;;;;5093539;28;20219;-59
2023/12/13 05:50:04;;;;;;;12.27;2.75;;;9.00;99.90;;;;;;5093775;28;20165;-59
2023/12/13 05:52:32;;;;;;;10.02;2.75;;;8.80;99.90;;;;;;5093074;28;20256;-59
2023/12/13 05:54:58;;;;;;;8.80;2.10;;;8.90;99.90;;;;;;5093620;28;20170;-59
2023/12/13 05:57:24;;;;;;;12.45;3.20;;;8.90;99.90;;;;;;5094372;28;20215;-48
2023/12/13 05:59:49;;;;;;;5.40;2.55;;;8.90;99.90;;;;;;5100435;28;20196;-59
2023/12/13 06:02:15;;;;;;;11.20;2.63;;;8.90;99.90;;;;;;5092688;28;20191;-54
2023/12/13 06:04:42;;;;;;;7.55;2.85;;;8.80;99.90;;;;;;5092603;28;20185;-59
2023/12/13 06:07:11;;;;;;;8.82;3.15;;;8.80;99.90;;;;;;5092583;28;20244;-58
2023/12/13 06:09:36;;;;;;;11.45;3.72;;;8.80;99.90;;;;;;5092591;28;20671;-58
2023/12/13 06:12:03;;;;;;;17.60;4.57;;;8.80;99.90;;;;;;5092594;28;20181;-58
2023/12/13 06:14:29;;;;;;;19.15;3.90;;;8.80;99.90;;;;;;5092831;28;20260;-59
2023/12/13 06:16:55;;;;;;;11.98;4.20;;;8.90;99.90;;;;;;5092232;28;20636;-57
2023/12/13 06:19:21;;;;;;;10.38;3.78;;;8.80;99.90;;;;;;5092707;28;20201;-58
2023/12/13 06:21:47;;;;;;;10.35;3.53;;;8.90;99.90;;;;;;5091012;28;20163;-59
2023/12/13 06:24:12;;;;;;;11.30;3.15;;;8.80;99.90;;;;;;5092185;28;20173;-59
2023/12/13 06:26:38;;;;;;;11.27;2.70;;;8.80;99.90;;;;;;5092450;28;20169;-55
2023/12/13 06:29:03;;;;;;;9.95;3.10;;;8.90;99.90;;;;;;5092350;28;20524;-59
2023/12/13 06:31:29;;;;;;;9.23;2.90;;;8.80;99.90;;;;;;5092120;28;20643;-59
2023/12/13 06:33:55;;;;;;;11.60;3.03;;;8.90;99.90;;;;;;5092379;28;20205;-58
2023/12/13 06:36:20;;;;;;;9.10;3.55;;;9.00;99.90;;;;;;5092810;28;20617;-58
2023/12/13 06:38:46;;;;;;;9.80;3.20;;;9.00;99.90;;;;;;5092425;28;20177;-58
2023/12/13 06:41:12;;;;;;;14.27;3.00;;;8.90;99.90;;;;;;5092227;28;20283;-58
2023/12/13 06:43:37;;;;;;;14.98;3.38;;;9.00;99.90;;;;;;5091949;28;20169;-58
2023/12/13 06:46:03;;;;;;;11.18;3.03;;;9.00;99.90;;;;;;5091806;28;20204;-58
2023/12/13 06:48:29;;;;;;;11.07;2.47;;;9.10;99.90;;;;;;5091893;28;20525;-58
2023/12/13 06:50:55;;;;;;;12.70;3.47;;;9.10;99.90;;;;;;5091760;28;20548;-58
2023/12/13 06:53:21;;;;;;;6.60;2.72;;;9.20;99.90;;;;;;5091927;28;20233;-58
2023/12/13 06:55:46;;;;;;;10.48;3.53;;;9.10;99.90;;;;;;5094536;28;20176;-58
2023/12/13 06:58:13;;;;;;;10.70;3.03;;;9.10;99.90;;;;;;5111990;28;20574;-58
2023/12/13 07:00:38;;;;;;;10.30;3.03;;;9.10;99.90;;;;;;5112106;28;20196;-58
2023/12/13 07:03:04;;;;;;;11.43;2.90;;;9.00;99.90;;;;;;5111948;28;20211;-58
2023/12/13 07:05:29;;;;;;;9.10;2.28;;;9.10;99.90;;;;;;5111859;28;20614;-58
2023/12/13 07:07:55;;;;;;;6.75;2.22;;;9.10;99.90;;;;;;5111850;28;20168;-58
2023/12/13 07:10:21;;;;;;;12.85;3.03;;;9.00;99.90;;;;;;5112206;28;20168;-58
2023/12/13 07:12:47;;;;;;;12.40;2.83;;;9.10;99.90;;;;;;5111898;28;20287;-58
2023/12/13 07:15:14;;;;;;;8.15;2.47;;;9.00;99.90;;;;;;5111869;28;20192;-58
2023/12/13 07:17:42;;;;;;;5.57;2.25;;;9.10;99.90;;;;;;5111705;28;20651;-58
2023/12/13 07:20:10;;;;;;;10.55;2.45;;;9.10;99.90;;;;;;5111938;28;20176;-59
2023/12/13 07:22:36;;;;;;;13.30;3.13;;;9.00;99.90;;;;;;5111912;28;20260;-56
2023/12/13 07:25:02;;;;;;;13.50;2.88;;;9.10;99.90;;;;;;5111481;28;20196;-56
2023/12/13 07:27:28;;;;;;;10.02;3.13;;;9.10;99.90;;;;;;5111141;28;20551;-55
2023/12/13 07:29:53;;;;;;;8.48;2.55;;;9.10;99.90;;;;;;5111479;28;20161;-50
2023/12/13 07:32:19;;;;;;;9.98;3.70;;;9.10;99.90;;;;;;5111457;28;20595;-55
2023/12/13 07:34:44;;;;;;;14.40;3.83;;;9.10;99.90;;;;;;5111552;28;20164;-55
2023/12/13 07:37:10;;;;;;;8.32;3.00;;;9.10;99.90;;;;;;5111603;28;20672;-56
2023/12/13 07:39:36;;;;;;;15.65;4.00;;;9.10;99.90;;;;;;5111347;28;20570;-56
2023/12/13 07:42:03;;;;;;;14.00;3.58;;;9.10;99.90;;;;;;5111604;28;20168;-58
2023/12/13 07:44:31;;;;;;;12.15;3.38;;;9.10;99.90;;;;;;5111559;28;20291;-56
2023/12/13 07:46:56;;;;;;;11.82;3.35;;;9.10;99.90;;;;;;5111336;28;20217;-60
2023/12/13 07:49:22;;;;;;;8.43;2.80;;;9.10;99.90;;;;;;5111842;28;20168;-59
2023/12/13 07:51:47;;;;;;;8.25;2.60;;;9.10;99.90;;;;;;5110977;28;20213;-60
2023/12/13 07:54:16;;;;;;;9.77;2.22;;;9.10;99.90;;;;;;5111568;28;20287;-50
2023/12/13 07:56:42;;;;;;;15.25;3.17;;;9.10;99.90;;;;;;5101022;28;20263;-51
2023/12/13 07:59:07;;;;;;;9.93;3.15;;;9.10;99.90;;;;;;5090884;28;20204;-48
2023/12/13 08:01:33;;;;;;;7.20;2.45;;;9.10;99.90;;;;;;5090821;28;20207;-46
2023/12/13 08:03:58;;;;;;;15.43;2.97;;;9.10;99.90;;;;;;5090837;28;20169;-47
2023/12/13 08:06:24;;;;;;;8.80;2.28;;;9.10;99.90;;;;;;5091071;28;20540;-53
2023/12/13 08:08:51;;;;;;;14.57;3.35;;;9.10;99.90;;;;;;5091168;28;20165;-47
2023/12/13 08:11:17;;;;;;;11.63;3.47;;;9.10;99.90;;;;;;5090599;28;20632;-48
2023/12/13 08:13:43;;;;;;;14.75;4.00;;;9.10;99.90;;;;;;5090677;28;20285;-48
2023/12/13 08:16:09;;;;;;;8.50;2.88;;;9.00;99.90;;;;;;5090976;28;20173;-47
2023/12/13 08:18:36;;;;;;;21.85;4.38;;;9.10;99.90;;;;;;5090621;28;20176;-51
2023/12/13 08:21:03;;;;;;;16.30;3.70;;;9.10;99.90;;;;;;5090889;28;20194;-48
2023/12/13 08:23:29;;;;;;;10.23;3.90;;;9.00;99.90;;;;;;5090551;28;20173;-53
2023/12/13 08:25:56;;;;;;;13.40;3.33;;;9.00;99.90;;;;;;5096622;28;20180;-49
2023/12/13 08:28:21;;;;;;;5.22;2.30;;;9.00;99.90;;;;;;5111684;28;20172;-50
2023/12/13 08:30:47;;;;;;;13.38;2.83;;;8.90;99.90;;;;;;5111239;28;20256;-50
2023/12/13 08:33:13;;;;;;;7.25;2.35;;;8.90;99.90;;;;;;5111136;28;20200;-48
2023/12/13 08:35:39;;;;;;;7.38;2.17;;;9.00;99.90;;;;;;5093555;28;20219;-47
2023/12/13 08:38:04;;;;;;;7.43;2.35;;;9.00;99.90;;;;;;5090541;28;20204;-49
2023/12/13 08:40:30;;;;;;;6.70;2.00;;;9.00;99.90;;;;;;5090352;28;20166;-48
2023/12/13 08:42:56;;;;;;;5.47;2.30;;;9.00;99.90;;;;;;5090562;28;20180;-47
2023/12/13 08:45:21;;;;;;;10.07;3.00;;;9.10;99.90;;;;;;5093582;28;20162;-47
2023/12/13 08:47:47;;;;;;;10.35;2.78;;;9.10;99.90;;;;;;5094158;28;20573;-47
2023/12/13 08:50:14;;;;;;;7.85;2.75;;;9.10;99.90;;;;;;5094532;28;20173;-47
2023/12/13 08:52:40;;;;;;;10.98;3.08;;;9.10;99.90;;;;;;5094299;28;20761;-48
2023/12/13 08:55:08;;;;;;;8.60;2.47;;;9.10;99.90;;;;;;5094783;28;20177;-58
2023/12/13 08:57:34;;;;;;;11.23;2.75;;;9.10;99.90;;;;;;5113967;28;20246;-58
2023/12/13 09:00:00;;;;;;;10.45;2.92;;;9.20;99.90;;;;;;5115025;28;20177;-58
2023/12/13 09:02:25;;;;;;;10.45;2.47;;;9.20;99.90;;;;;;5114885;28;20171;-64
2023/12/13 09:04:51;;;;;;;15.45;4.05;;;9.30;99.90;;;;;;5115288;28;20207;-56
2023/12/13 09:07:17;;;;;;;16.40;5.07;;;9.30;99.90;;;;;;5114783;28;20193;-57
2023/12/13 09:09:43;;;;;;;13.07;3.75;;;9.40;99.90;;;;;;5114940;28;20241;-58
2023/12/13 09:12:08;;;;;;;14.23;4.00;;;9.40;99.90;;;;;;5114515;28;20727;-57
2023/12/13 09:14:34;;;;;;;8.52;4.07;;;9.40;99.90;;;;;;5114685;28;20179;-58
2023/12/13 09:17:01;;;;;;;12.35;3.47;;;9.40;99.90;;;;;;5114516;28;20252;-58
2023/12/13 09:19:27;;;;;;;14.48;3.47;;;9.40;99.90;;;;;;5114776;28;20247;-58
2023/12/13 09:21:52;;;;;;;10.23;4.00;;;9.50;99.90;;;;;;5114939;28;20624;-57
2023/12/13 09:24:18;;;;;;;12.52;3.35;;;9.60;99.90;;;;;;5114827;28;20169;-54
2023/12/13 09:26:44;;;;;;;14.07;3.83;;;9.60;99.90;;;;;;5099477;28;20176;-56
2023/12/13 09:29:10;;;;;;;10.25;3.63;;;9.60;99.90;;;;;;5093926;28;20208;-58
2023/12/13 09:31:36;;;;;;;14.60;3.45;;;9.70;99.90;;;;;;5094169;28;20165;-58
2023/12/13 09:34:02;;;;;;;11.38;3.42;;;9.70;99.90;;;;;;5093760;28;20735;-54
2023/12/13 09:36:27;;;;;;;11.43;3.88;;;9.70;99.90;;;;;;5094021;28;20176;-58
2023/12/13 09:38:53;;;;;;;12.75;3.42;;;9.70;99.90;;;;;;5093744;28;20170;-54
2023/12/13 09:41:30;;;;;;;15.10;3.50;;;9.70;99.90;;;;;;5094111;28;20351;-58
2023/12/13 09:43:57;;;;;;;10.02;3.63;;;9.80;99.90;;;;;;5093725;28;20176;-58
2023/12/13 09:46:24;;;;;;;13.20;3.83;;;9.80;99.90;;;;;;5094330;28;20173;-58
2023/12/13 09:48:50;;;;;;;19.20;4.20;;;9.80;99.90;;;;;;5094044;28;20168;-58
2023/12/13 09:51:18;;;;;;;11.50;3.33;;;9.90;99.90;;;;;;5093526;28;20173;-58
2023/12/13 09:53:47;;;;;;;11.52;3.55;;;9.90;99.90;;;;;;5093603;28;20254;-58
2023/12/13 09:56:13;;;;;;;16.27;3.10;;;10.00;99.90;;;;;;5093730;28;20173;-56
2023/12/13 09:58:39;;;;;;;11.07;3.63;;;10.00;99.90;;;;;;5107869;28;20177;-56
2023/12/13 10:01:12;;;;;;;13.52;3.13;;;10.00;99.90;;;;;;5113789;28;20637;-55
2023/12/13 10:03:41;;;;;;;14.25;3.47;;;10.00;99.90;;;;;;5113735;28;20210;-56
2023/12/13 10:06:07;;;;;;;12.38;4.78;;;10.00;99.90;;;;;;5113921;28;20172;-55
2023/12/13 10:08:33;;;;;;;11.75;3.88;;;10.10;99.90;;;;;;5113572;28;20172;-56
2023/12/13 10:10:59;;;;;;;14.25;2.95;;;10.10;99.90;;;;;;5113857;28;20161;-54
2023/12/13 10:13:28;;;;;;;12.10;2.92;;;10.10;99.90;;;;;;5113481;28;20644;-58
2023/12/13 10:15:53;;;;;;;10.32;3.60;;;10.10;99.90;;;;;;5113532;28;20252;-57
2023/12/13 10:18:19;;;;;;;7.07;2.60;;;10.10;99.90;;;;;;5113765;28;20201;-58
2023/12/13 10:20:45;;;;;;;10.75;3.25;;;10.10;99.90;;;;;;5113314;28;20196;-57
2023/12/13 10:23:12;;;;;;;9.52;2.63;;;10.10;99.90;;;;;;5113608;28;20191;-57
2023/12/13 10:25:38;;;;;;;12.30;3.00;;;10.10;99.90;;;;;;5105307;28;20690;-58
2023/12/13 10:28:04;;;;;;;9.52;3.65;;;10.10;99.90;;;;;;5093099;28;20185;-55
2023/12/13 10:30:32;;;;;;;10.82;3.33;;;10.20;99.90;;;;;;5092778;28;20525;-57
2023/12/13 10:32:57;;;;;;;10.07;3.10;;;10.10;99.90;;;;;;5092858;28;20214;-55
2023/12/13 10:35:23;;;;;;;11.32;2.88;;;10.10;99.90;;;;;;5092693;28;20165;-55
2023/12/13 10:37:51;;;;;;;12.10;3.15;;;10.10;99.90;;;;;;5093264;28;20186;-57
2023/12/13 10:40:17;;;;;;;17.60;4.22;;;10.10;99.90;;;;;;5092644;28;20693;-55
2023/12/13 10:42:47;;;;;;;13.48;3.22;;;10.20;99.90;;;;;;5105518;28;20181;-58
2023/12/13 10:45:16;;;;;;;15.15;3.40;;;10.20;99.90;;;;;;5112866;28;20255;-51
2023/12/13 10:47:45;;;;;;;12.10;3.38;;;10.20;99.90;;;;;;5113049;28;20602;-58
2023/12/13 10:50:11;;;;;;;11.30;3.08;;;10.30;99.90;;;;;;5112986;28;20320;-57
2023/12/13 10:52:38;;;;;;;8.80;3.13;;;10.20;99.90;;;;;;5112571;28;20332;-58
2023/12/13 10:55:08;;;;;;;8.40;2.85;;;10.30;99.90;;;;;;5109777;28;20165;-50
2023/12/13 10:57:36;;;;;;;9.48;3.63;;;10.30;99.90;;;;;;5098931;28;20176;-58
2023/12/13 11:00:04;;;;;;;9.52;3.17;;;10.30;99.90;;;;;;5112496;28;20714;-57
2023/12/13 11:02:41;;;;;;;11.13;3.05;;;10.30;99.90;;;;;;5112776;28;20172;-51
2023/12/13 11:05:07;;;;;;;9.63;3.55;;;10.30;99.90;;;;;;5112853;28;20203;-58
2023/12/13 11:07:45;;;;;;;14.27;3.92;;;10.40;99.90;;;;;;5112334;28;20168;-57
2023/12/13 11:10:13;;;;;;;13.93;3.67;;;10.40;99.90;;;;;;5112360;28;20264;-56
2023/12/13 11:12:49;;;;;;;9.15;2.67;;;10.40;99.90;;;;;;5112441;28;20208;-58
2023/12/13 11:15:15;;;;;;;14.63;3.28;;;10.40;99.90;;;;;;5112326;28;20174;-57
2023/12/13 11:17:53;;;;;;;9.00;2.40;;;10.30;99.90;;;;;;5112106;28;20164;-56
2023/12/13 11:20:20;;;;;;;8.68;3.08;;;10.40;99.90;;;;;;5112872;28;20173;-57
2023/12/13 11:22:48;;;;;;;9.77;3.35;;;10.40;99.90;;;;;;5112447;28;20165;-58
2023/12/13 11:25:14;;;;;;;8.70;2.58;;;10.50;99.90;;;;;;5105640;28;20527;-56
2023/12/13 11:28:00;;;;;;;6.50;2.60;;;10.50;99.90;;;;;;5091688;28;20157;-58
2023/12/13 11:30:25;;;;;;;10.82;3.05;;;10.50;99.90;;;;;;5091399;28;20234;-54
2023/12/13 11:32:51;;;;;;;11.32;2.50;;;10.50;99.90;;;;;;5091992;28;20197;-54
2023/12/13 11:35:20;;;;;;;10.57;3.13;;;10.50;99.90;;;;;;5091939;28;20303;-54
2023/12/13 11:37:51;;;;;;;8.60;2.40;;;10.40;99.90;;;;;;5091911;28;20161;-58
2023/12/13 11:40:17;;;;;;;9.32;1.95;;;10.40;99.90;;;;;;5091897;28;20236;-58
2023/12/13 11:42:43;;;;;;;7.00;2.08;;;10.40;99.90;;;;;;5091593;28;20158;-55
2023/12/13 11:45:09;;;;;;;8.68;2.08;;;10.40;99.90;;;;;;5091896;28;20636;-58
2023/12/13 11:47:34;;;;;;;6.20;1.95;;;10.40;99.90;;;;;;5091600;28;20166;-58
2023/12/13 11:50:00;;;;;;;10.23;2.45;;;10.30;99.90;;;;;;5091810;28;20656;-54
2023/12/13 11:52:25;;;;;;;10.40;2.47;;;10.40;99.90;;;;;;5091268;28;20227;-58
2023/12/13 11:54:51;;;;;;;8.25;2.20;;;10.40;99.90;;;;;;5092227;28;20185;-57
2023/12/13 11:57:19;;;;;;;9.15;2.83;;;10.40;99.90;;;;;;5091760;28;20173;-48
2023/12/13 11:59:46;;;;;;;6.75;2.30;;;10.40;99.90;;;;;;5091514;28;20170;-48
2023/12/13 12:02:16;;;;;;;9.85;2.40;;;10.40;99.90;;;;;;5091408;28;20174;-48
2023/12/13 12:04:42;;;;;;;7.53;2.40;;;10.40;99.90;;;;;;5091419;28;20575;-48
2023/12/13 12:07:14;;;;;;;11.57;2.65;;;10.40;99.90;;;;;;5091336;28;20161;-49
2023/12/13 12:09:40;;;;;;;10.98;3.25;;;10.40;99.90;;;;;;5091567;28;20173;-48
2023/12/13 12:12:08;;;;;;;14.48;2.30;;;10.40;99.90;;;;;;5091291;28;20169;-47
2023/12/13 12:14:33;;;;;;;9.98;2.72;;;10.50;99.90;;;;;;5091287;28;20172;-48
2023/12/13 12:17:01;;;;;;;10.38;3.05;;;10.50;99.90;;;;;;5091262;28;20173;-50
2023/12/13 12:19:29;;;;;;;9.05;2.40;;;9.70;99.90;;;;;;5092700;28;20244;-56
2023/12/13 12:21:55;;;;;;;9.18;2.38;;;10.60;99.90;;;;;;5095256;28;20169;-58
2023/12/13 12:24:27;;;;;;;14.32;2.97;;;10.60;99.90;;;;;;5096024;28;20168;-58
2023/12/13 12:26:52;;;;;;;9.50;2.22;;;10.60;99.90;;;;;;5095390;28;20169;-54
2023/12/13 12:29:18;;;;;;;8.80;2.55;;;10.60;99.90;;;;;;5095642;28;20173;-58
2023/12/13 12:31:43;;;;;;;8.20;2.60;;;10.60;99.90;;;;;;5095065;28;20240;-58
2023/12/13 12:34:13;;;;;;;20.23;3.55;;;10.60;99.90;;;;;;5095003;28;20209;-56
2023/12/13 12:36:38;;;;;;;10.27;2.47;;;10.60;99.90;;;;;;5095260;28;20180;-57
2023/12/13 12:39:04;;;;;;;16.55;2.72;;;10.60;99.90;;;;;;5094981;28;20251;-58
2023/12/13 12:41:34;;;;;;;13.80;2.85;;;10.60;99.90;;;;;;5094947;28;20169;-59
2023/12/13 12:44:00;;;;;;;9.60;2.08;;;10.70;99.90;;;;;;5095209;28;20235;-57
2023/12/13 12:46:26;;;;;;;8.20;2.60;;;10.80;99.90;;;;;;5095073;28;20173;-58